Tiempo atmosférico en la estación meteorológica de Medina De Rioseco, Valladolid (731 m.)



Fecha
DESCASC
Temp. máxima en grados centígrados (hora)
DESCASC
Temp. mínima en grados centígrados (hora)
DESCASC
Temp. media en grados centígrados
DESCASC
Racha de viento máxima en m/sg (hora)
DESCASC
Velocidad máxima media en intervalos de 10 minutos(hora)
DESCASC
Precipitaciones diarias en mm
DESCASC
Precipitaciones de 00:00 a 06:00 en mm
DESCASC
Precipitaciones de 06:00 a 12:00 en mm
DESCASC
Precipitaciones de 12:00 a 18:00 en mm
DESCASC
Precipitaciones de 18:00 a 24:00 en mm
DESCASC
18-01-2019 3.8 (14:50) -5.3 (05:10) -0.8 5.83 (15:10) 3.89 (18:50) 0 0 0 0 0
17-01-2019 8.3 (16:20) -4.6 (-00:0) 1.9 4.17 (11:10) 2.22 (11:10) 0 0 0 0 0
16-01-2019 3.3 (20:50) -3.2 (06:10) 0 4.44 (15:50) 2.78 (15:50) 0 0 0 0 0
15-01-2019 5.1 (17:00) -5 (-00:0) 0 5.56 (06:00) 2.78 (06:00) 0 0 0 0 0
14-01-2019 7.6 (16:40) -5.4 (-00:0) 1.1 6.11 (14:00) 3.89 (14:20) 0 0 0 0 0
13-01-2019 7.6 (16:40) -6.9 (05:40) 0.3 3.89 (14:00) 2.22 (15:20) 0 0 0 0 0
12-01-2019 8.6 (16:00) -5.7 (-00:0) 1.5 7.78 (17:40) 4.17 (17:40) 0 0 0 0 0
11-01-2019 5.7 (15:20) -5.7 (-00:0) 0 12.22 (15:00) 6.94 (23:10) 0 0 0 0 0
10-01-2019 5.9 (15:00) -5.4 (-00:0) 0.3 13.61 (13:30) 8.06 (13:30) 0 0 0 0 0
09-01-2019 3.7 (16:00) -3.7 (-00:0) 0 5.83 (22:10) 2.5 (22:10) 0 0 0 0 0
08-01-2019 9.2 (16:10) -6.5 (-00:0) 1.3 6.94 (00:40) 4.17 (00:30) 0 0 0 0 0
07-01-2019 8.7 (16:00) -8.8 (-00:0) -0.1 7.78 (19:50) 4.17 (19:50) 0 0 0 0 0
06-01-2019 10.7 (16:30) -7.8 (-00:0) 1.4 4.72 (15:30) 2.78 (21:10) 0 0 0 0 0
05-01-2019 11.3 (16:40) -8.4 (-00:0) 1.5 3.06 (13:30) 1.94 (12:50) 0 0 0 0 0
04-01-2019 12.1 (16:00) -7.7 (-00:0) 2.2 5.83 (16:00) 3.33 (16:10) 0 0 0 0 0
03-01-2019 10.2 (14:30) -1.8 (-00:0) 4.2 8.33 (09:20) 4.17 (03:50) 0 0 0 0 0
02-01-2019 8.2 (15:10) -4.5 (-00:0) 1.8 9.44 (12:10) 5.28 (13:10) 0 0 0 0 0
01-01-2019 12.8 (16:00) -4.9 (08:40) 4 3.06 (14:40) 1.94 (02:30) 0 0 0 0 0
31-12-2018 12.5 (15:50) -5.8 (-00:0) 3.3 3.89 (01:00) 2.5 (01:00) 0 0 0 0 0
30-12-2018 12.5 (16:00) -2.4 (-00:0) 5 8.89 (00:10) 4.44 (00:10) 0 0 0 0 0
29-12-2018 11.2 (16:00) 2.6 (00:00) 6.9 12.5 (11:30) 7.22 (11:40) 0 0 0 0 0
28-12-2018 10.4 (16:20) -0.5 (09:10) 4.9 8.61 (21:20) 4.72 (23:59) 0 0 0 0 0
27-12-2018 2.7 (16:30) -0.7 (-00:0) 1 2.78 (22:00) 1.67 (11:30) 0 0 0 0 0
26-12-2018 4.6 (16:20) -1.1 (-00:0) 1.7 2.5 (20:50) 1.67 (20:50) 0 0 0 0 0
25-12-2018 9.4 (16:10) 0.4 (00:00) 4.9 3.61 (01:50) 2.22 (12:30) 0 0 0 0 0
23-12-2018 11.4 (15:40) 3.5 (00:00) 7.4 3.89 (17:00) 2.22 (13:40) 0 0 0 0 0
22-12-2018 10.5 (16:00) 8.2 (08:30) 9.3 5.83 (00:10) 3.89 (00:10) 0 0 0 0 0
21-12-2018 11.3 (13:30) 6.8 (00:00) 9.1 14.44 (14:00) 7.78 (13:50) 0 0 0 0 0

Gráficas

Temp. máximas Temp. mínimas Temp. medias Precipitaciones Rachas de viento máximas Velocidades máximas media en intervalos de 10 minutos

Datos horarios

Fecha y hora oficial Temperatura (ºC) Velocidad del viento (km/h) Dirección del viento Racha (km/h) Dirección de racha Precipitación (mm) Presión (hPa) Tendencia (hPa) Humedad (%)
2019-01-19 23:00:00 3.7 7 Nordeste 17 Nordeste 0.6 -- -- 96
2019-01-19 22:00:00 5.7 11 Noroeste 20 Oeste 2 -- -- 96
2019-01-19 21:00:00 6 14 Oeste 31 Oeste 0 -- -- 96
2019-01-19 20:00:00 6 17 Oeste 26 Oeste 0.6 -- -- 96
2019-01-19 19:00:00 5.4 8 Oeste 14 Sudoeste 1.6 -- -- 96
2019-01-19 18:00:00 5.1 3 Sudoeste 13 Sudoeste 2.6 -- -- 96
2019-01-19 17:00:00 5 8 Sudoeste 15 Sudoeste 1.2 -- -- 95
2019-01-19 16:00:00 4.3 10 Sudoeste 22 Sudoeste 0.4 -- -- 95
2019-01-19 15:00:00 3.8 9 Sudoeste 18 Sudoeste 0.4 -- -- 94
2019-01-19 14:00:00 3.4 10 Sur 19 Sudoeste 1.4 -- -- 94
2019-01-19 13:00:00 3.3 12 Sudoeste 24 Sudoeste 1.8 -- -- 93
2019-01-19 12:00:00 3.8 11 Sudoeste 24 Sudoeste 0 -- -- 94
2019-01-19 11:00:00 3.4 11 Sudoeste 23 Sudoeste 0 -- -- 96
2019-01-19 10:00:00 2.2 12 Sudoeste 26 Sudoeste 0 -- -- 96
2019-01-19 09:00:00 1.9 9 Sudoeste 15 Sudoeste 0 -- -- 97
2019-01-19 08:00:00 1.9 8 Sudoeste 17 Sudoeste 0 -- -- 97
2019-01-19 07:00:00 1.5 10 Sudoeste 19 Sudoeste 0 -- -- 97
2019-01-19 06:00:00 1.3 12 Sudoeste 21 Sudoeste 0 -- -- 97
2019-01-19 05:00:00 1.1 14 Sudoeste 24 Sudoeste 0 -- -- 96
2019-01-19 04:00:00 1.1 14 Sudoeste 21 Oeste 0 -- -- 96
2019-01-19 03:00:00 1.1 13 Sudoeste 22 Sudoeste 0 -- -- 95
2019-01-19 02:00:00 1.2 14 Oeste 23 Sudoeste 0 -- -- 94
2019-01-19 01:00:00 1.4 13 Oeste 24 Sudoeste 0 -- -- 94
2019-01-19 00:00:00 0.8 10 Oeste 16 Oeste 0 -- -- 94
2019-01-18 23:00:00 1.2 10 Sudoeste 13 Sudoeste 0 -- -- 91
2019-01-18 22:00:00 1.6 7 Oeste 10 Oeste 0 -- -- 92
2019-01-18 21:00:00 1.6 3 Oeste 9 Oeste 0 -- -- 91
2019-01-18 20:00:00 1.7 3 Sudoeste 13 Oeste 0 -- -- 90
2019-01-18 19:00:00 2.6 13 Oeste 20 Oeste 0 -- -- 87
2019-01-18 18:00:00 3.2 10 Oeste 19 Oeste 0 -- -- 85
2019-01-18 17:00:00 3.6 10 Oeste 17 Oeste 0 -- -- 84
2019-01-18 16:00:00 3.7 13 Noroeste 21 Oeste 0 -- -- 86
2019-01-18 15:00:00 3.6 12 Oeste 20 Oeste 0 -- -- 88
2019-01-18 14:00:00 2.8 8 Oeste 12 Sudoeste 0 -- -- 94
2019-01-18 13:00:00 1.8 5 Sudoeste 9 Sudoeste 0 -- -- 95
2019-01-18 12:00:00 -0.1 6 Oeste 10 Sudoeste 0 -- -- 95
2019-01-18 11:00:00 -1.2 2 Oeste 5 Noroeste 0 -- -- 96
2019-01-18 10:00:00 -2.1 3 Noroeste 5 Noroeste 0 -- -- 96
2019-01-18 09:00:00 -3 0 Calma 5 Noroeste 0 -- -- 95
2019-01-18 08:00:00 -3.5 4 Noroeste 7 Noroeste 0 -- -- 95
2019-01-18 07:00:00 -4.7 3 Oeste 4 Nordeste 0 -- -- 94
2019-01-18 06:00:00 -4.2 4 Nordeste 9 Nordeste 0 -- -- 94
2019-01-18 05:00:00 -5 3 Oeste 4 Oeste 0 -- -- 94
2019-01-18 04:00:00 -4.8 0 Calma 4 Este 0 -- -- 93
2019-01-18 03:00:00 -4.7 0 Calma 6 Este 0 -- -- 94
2019-01-18 02:00:00 -4.3 2 Sudeste 8 Nordeste 0 -- -- 92
2019-01-18 01:00:00 -4.8 0 Calma 4 Noroeste 0 -- -- 93
2019-01-18 00:00:00 -4.6 2 Oeste 4 Oeste 0 -- -- 92
2019-01-17 23:00:00 -3.9 0 Calma 4 Noroeste 0 -- -- 91
2019-01-17 22:00:00 -3.3 0 Calma 6 Noroeste 0 -- -- 90
2019-01-17 21:00:00 -2.3 3 Sur 6 Sur 0 -- -- 88
2019-01-17 20:00:00 -0.7 3 Sudoeste 4 Oeste 0 -- -- 85
2019-01-17 19:00:00 1.9 0 Calma 5 Sudeste 0 -- -- 79
2019-01-17 18:00:00 5.7 3 Oeste 8 Oeste 0 -- -- 71
2019-01-17 17:00:00 7.8 4 Noroeste 10 Noroeste 0 -- -- 64
2019-01-17 16:00:00 7.9 3 Sudoeste 9 Sudoeste 0 -- -- 69
2019-01-17 15:00:00 6.9 4 Oeste 9 Sur 0 -- -- 75
2019-01-17 14:00:00 4.7 4 Norte 12 Noroeste 0 -- -- 84
2019-01-17 13:00:00 3.6 4 Oeste 10 Sudeste 0 -- -- 90
2019-01-17 12:00:00 2.5 8 Este 15 Este 0 -- -- 94
2019-01-17 11:00:00 1.8 6 Este 12 Este 0 -- -- 95
2019-01-17 10:00:00 1.4 5 Nordeste 9 Nordeste 0 -- -- 95
2019-01-17 09:00:00 1.5 4 Norte 10 Norte 0 -- -- 95
2019-01-17 08:00:00 2.1 5 Norte 10 Nordeste 0 -- -- 96
2019-01-17 07:00:00 2.2 4 Nordeste 9 Nordeste 0 -- -- 96
2019-01-17 06:00:00 2.4 4 Nordeste 8 Norte 0 -- -- 96
2019-01-17 05:00:00 2.4 2 Nordeste 8 Nordeste 0 -- -- 96
2019-01-17 04:00:00 2.5 3 Nordeste 6 Norte 0 -- -- 96
2019-01-17 03:00:00 2.5 0 Calma 3 Nordeste 0 -- -- 96
2019-01-17 02:00:00 2.6 2 Nordeste 8 Nordeste 0 -- -- 95
2019-01-17 01:00:00 2.7 6 Nordeste 11 Nordeste 0 -- -- 94
2019-01-17 00:00:00 2.9 5 Nordeste 8 Nordeste 0 -- -- 94
2019-01-16 23:00:00 3.1 0 Calma 5 Nordeste 0 -- -- 94
2019-01-16 22:00:00 3.1 2 Este 8 Nordeste 0 -- -- 94
2019-01-16 21:00:00 3.3 5 Nordeste 7 Nordeste 0 -- -- 94
2019-01-16 20:00:00 3.2 3 Sur 8 Sur 0 -- -- 94
2019-01-16 19:00:00 3.1 0 Calma 5 Sudoeste 0 -- -- 94
2019-01-16 18:00:00 3.1 2 Sudoeste 7 Sur 0 -- -- 94
2019-01-16 17:00:00 3.1 0 Calma 11 Norte 0 -- -- 95
2019-01-16 16:00:00 3.2 8 Norte 16 Noroeste 0 -- -- 97
2019-01-16 15:00:00 2.4 3 Sur 11 Sur 0 -- -- 98
2019-01-16 14:00:00 0.7 0 Calma 5 Noroeste 0 -- -- 98
2019-01-16 13:00:00 -0.3 2 Sur 6 Sudeste 0 -- -- 98